sensor_id;sensor_type;location;lat;lon;timestamp;pressure;altitude;pressure_sealevel;temperature;humidity
13434;BME280;6789;47.678;9.158;2022-08-19T00:04:40;96382.25;;;18.66;100.00
13434;BME280;6789;47.678;9.158;2022-08-19T00:09:32;96392.09;;;18.65;100.00
13434;BME280;6789;47.678;9.158;2022-08-19T00:14:26;96404.31;;;18.66;100.00
13434;BME280;6789;47.678;9.158;2022-08-19T00:19:37;96388.13;;;18.63;100.00
13434;BME280;6789;47.678;9.158;2022-08-19T00:24:45;96381.47;;;18.65;100.00
13434;BME280;6789;47.678;9.158;2022-08-19T00:29:41;96383.28;;;18.70;100.00
13434;BME280;6789;47.678;9.158;2022-08-19T00:34:34;96390.94;;;18.71;100.00
13434;BME280;6789;47.678;9.158;2022-08-19T00:40:05;96385.09;;;18.74;100.00
13434;BME280;6789;47.678;9.158;2022-08-19T00:45:21;96393.53;;;18.76;100.00
13434;BME280;6789;47.678;9.158;2022-08-19T00:50:33;96389.59;;;18.74;100.00
13434;BME280;6789;47.678;9.158;2022-08-19T00:56:12;96389.59;;;18.74;100.00
13434;BME280;6789;47.678;9.158;2022-08-19T01:01:57;96390.34;;;18.79;100.00
13434;BME280;6789;47.678;9.158;2022-08-19T01:14:37;96381.34;;;18.75;100.00
13434;BME280;6789;47.678;9.158;2022-08-19T01:19:42;96382.13;;;18.76;100.00
13434;BME280;6789;47.678;9.158;2022-08-19T01:29:45;96376.38;;;18.69;100.00
13434;BME280;6789;47.678;9.158;2022-08-19T01:35:23;96359.91;;;18.67;100.00
13434;BME280;6789;47.678;9.158;2022-08-19T01:40:19;96363.94;;;18.64;100.00
13434;BME280;6789;47.678;9.158;2022-08-19T01:45:36;96373.19;;;18.67;100.00
13434;BME280;6789;47.678;9.158;2022-08-19T01:50:47;96376.94;;;18.66;100.00
13434;BME280;6789;47.678;9.158;2022-08-19T01:55:43;96376.94;;;18.66;100.00
13434;BME280;6789;47.678;9.158;2022-08-19T02:00:49;96353.88;;;18.62;100.00
13434;BME280;6789;47.678;9.158;2022-08-19T02:05:43;96350.94;;;18.63;100.00
13434;BME280;6789;47.678;9.158;2022-08-19T02:10:51;96351.72;;;18.63;100.00
13434;BME280;6789;47.678;9.158;2022-08-19T02:15:59;96349.56;;;18.65;100.00
13434;BME280;6789;47.678;9.158;2022-08-19T02:21:06;96349.56;;;18.65;100.00
13434;BME280;6789;47.678;9.158;2022-08-19T02:26:17;96353.53;;;18.68;100.00
13434;BME280;6789;47.678;9.158;2022-08-19T02:31:16;96358.78;;;18.73;100.00
13434;BME280;6789;47.678;9.158;2022-08-19T02:36:11;96358.00;;;18.72;100.00
13434;BME280;6789;47.678;9.158;2022-08-19T02:41:15;96355.34;;;18.72;100.00
13434;BME280;6789;47.678;9.158;2022-08-19T02:46:19;96364.38;;;18.71;100.00
13434;BME280;6789;47.678;9.158;2022-08-19T02:51:41;96368.09;;;18.70;100.00
13434;BME280;6789;47.678;9.158;2022-08-19T02:56:50;96366.56;;;18.69;100.00
13434;BME280;6789;47.678;9.158;2022-08-19T03:02:08;96358.00;;;18.72;100.00
13434;BME280;6789;47.678;9.158;2022-08-19T03:07:00;96358.78;;;18.73;100.00
13434;BME280;6789;47.678;9.158;2022-08-19T03:12:09;96351.63;;;18.73;100.00
13434;BME280;6789;47.678;9.158;2022-08-19T03:17:02;96353.97;;;18.75;100.00
13434;BME280;6789;47.678;9.158;2022-08-19T03:21:55;96357.44;;;18.75;100.00
13434;BME280;6789;47.678;9.158;2022-08-19T03:26:54;96366.97;;;18.76;100.00
13434;BME280;6789;47.678;9.158;2022-08-19T03:31:48;96358.50;;;18.74;100.00
13434;BME280;6789;47.678;9.158;2022-08-19T03:36:44;96367.25;;;18.75;100.00
13434;BME280;6789;47.678;9.158;2022-08-19T03:41:40;96370.72;;;18.75;100.00
13434;BME280;6789;47.678;9.158;2022-08-19T03:46:37;96361.16;;;18.74;100.00
13434;BME280;6789;47.678;9.158;2022-08-19T03:51:38;96354.50;;;18.77;100.00
13434;BME280;6789;47.678;9.158;2022-08-19T03:56:46;96352.84;;;18.81;100.00
13434;BME280;6789;47.678;9.158;2022-08-19T04:02:10;96335.97;;;18.90;100.00
13434;BME280;6789;47.678;9.158;2022-08-19T04:07:28;96333.91;;;18.87;100.00
13434;BME280;6789;47.678;9.158;2022-08-19T04:12:36;96330.22;;;18.83;100.00
13434;BME280;6789;47.678;9.158;2022-08-19T04:17:44;96324.72;;;18.98;100.00
13434;BME280;6789;47.678;9.158;2022-08-19T04:22:50;96319.47;;;18.93;100.00
13434;BME280;6789;47.678;9.158;2022-08-19T04:27:56;96324.91;;;18.83;100.00
13434;BME280;6789;47.678;9.158;2022-08-19T04:33:28;96337.75;;;18.76;100.00
13434;BME280;6789;47.678;9.158;2022-08-19T04:38:35;96352.16;;;18.70;100.00
13434;BME280;6789;47.678;9.158;2022-08-19T04:43:45;96365.97;;;18.72;100.00
13434;BME280;6789;47.678;9.158;2022-08-19T04:48:54;96368.34;;;18.74;100.00
13434;BME280;6789;47.678;9.158;2022-08-19T04:54:03;96365.84;;;18.82;100.00
13434;BME280;6789;47.678;9.158;2022-08-19T04:59:18;96372.75;;;18.83;100.00
13434;BME280;6789;47.678;9.158;2022-08-19T05:04:57;96376.81;;;18.76;100.00
13434;BME280;6789;47.678;9.158;2022-08-19T05:10:16;96391.47;;;18.73;100.00
13434;BME280;6789;47.678;9.158;2022-08-19T05:15:34;96390.72;;;18.68;100.00
13434;BME280;6789;47.678;9.158;2022-08-19T05:20:47;96400.56;;;18.67;100.00
13434;BME280;6789;47.678;9.158;2022-08-19T05:26:25;96407.13;;;18.75;100.00
13434;BME280;6789;47.678;9.158;2022-08-19T05:31:32;96425.31;;;18.63;100.00
13434;BME280;6789;47.678;9.158;2022-08-19T05:36:43;96431.41;;;18.63;100.00
13434;BME280;6789;47.678;9.158;2022-08-19T05:42:03;96428.81;;;18.59;100.00
13434;BME280;6789;47.678;9.158;2022-08-19T05:47:34;96416.38;;;18.54;100.00
13434;BME280;6789;47.678;9.158;2022-08-19T05:54:40;96419.78;;;18.60;100.00
13434;BME280;6789;47.678;9.158;2022-08-19T05:59:47;96412.38;;;18.57;100.00
13434;BME280;6789;47.678;9.158;2022-08-19T06:05:28;96407.56;;;18.59;100.00
13434;BME280;6789;47.678;9.158;2022-08-19T06:10:35;96398.22;;;18.66;100.00
13434;BME280;6789;47.678;9.158;2022-08-19T06:16:02;96404.75;;;18.73;100.00
13434;BME280;6789;47.678;9.158;2022-08-19T06:21:10;96404.75;;;18.73;100.00
13434;BME280;6789;47.678;9.158;2022-08-19T06:26:20;96413.66;;;18.82;100.00
13434;BME280;6789;47.678;9.158;2022-08-19T06:31:50;96412.38;;;18.80;100.00
13434;BME280;6789;47.678;9.158;2022-08-19T06:37:07;96408.25;;;18.92;100.00
13434;BME280;6789;47.678;9.158;2022-08-19T06:48:12;96408.47;;;18.96;100.00
13434;BME280;6789;47.678;9.158;2022-08-19T06:53:55;96408.97;;;18.98;100.00
13434;BME280;6789;47.678;9.158;2022-08-19T06:59:43;96407.75;;;18.90;100.00
13434;BME280;6789;47.678;9.158;2022-08-19T07:17:25;96412.66;;;19.02;100.00
13434;BME280;6789;47.678;9.158;2022-08-19T07:23:04;96425.38;;;19.05;100.00
13434;BME280;6789;47.678;9.158;2022-08-19T07:28:54;96433.13;;;19.01;100.00
13434;BME280;6789;47.678;9.158;2022-08-19T07:34:25;96435.78;;;19.01;100.00
13434;BME280;6789;47.678;9.158;2022-08-19T07:40:17;96437.44;;;18.97;100.00
13434;BME280;6789;47.678;9.158;2022-08-19T07:51:00;96437.44;;;18.97;100.00
13434;BME280;6789;47.678;9.158;2022-08-19T07:56:29;96443.53;;;18.98;100.00
13434;BME280;6789;47.678;9.158;2022-08-19T09:26:57;96508.31;;;18.78;100.00
13434;BME280;6789;47.678;9.158;2022-08-19T09:32:46;96507.56;;;18.78;100.00
13434;BME280;6789;47.678;9.158;2022-08-19T10:57:50;96577.28;;;18.65;100.00
13434;BME280;6789;47.678;9.158;2022-08-19T11:03:12;96576.22;;;18.66;100.00
13434;BME280;6789;47.678;9.158;2022-08-19T11:08:45;96572.03;;;18.55;100.00
13434;BME280;6789;47.678;9.158;2022-08-19T11:19:49;96568.34;;;18.51;100.00
13434;BME280;6789;47.678;9.158;2022-08-19T11:24:55;96581.06;;;18.54;100.00
13434;BME280;6789;47.678;9.158;2022-08-19T11:30:22;96575.50;;;18.56;100.00
13434;BME280;6789;47.678;9.158;2022-08-19T12:02:14;96574.81;;;18.40;100.00
13434;BME280;6789;47.678;9.158;2022-08-19T12:07:21;96575.06;;;18.39;100.00
13434;BME280;6789;47.678;9.158;2022-08-19T12:12:28;96571.59;;;18.43;100.00
13434;BME280;6789;47.678;9.158;2022-08-19T12:17:42;96577.44;;;18.45;100.00
13434;BME280;6789;47.678;9.158;2022-08-19T13:21:24;96611.22;;;19.06;100.00
13434;BME280;6789;47.678;9.158;2022-08-19T14:33:10;96657.22;;;19.63;100.00
13434;BME280;6789;47.678;9.158;2022-08-19T14:38:27;96648.59;;;19.71;100.00
13434;BME280;6789;47.678;9.158;2022-08-19T14:49:33;96648.41;;;19.86;100.00
13434;BME280;6789;47.678;9.158;2022-08-19T15:00:30;96654.28;;;20.11;100.00
13434;BME280;6789;47.678;9.158;2022-08-19T15:05:50;96659.16;;;20.05;100.00
13434;BME280;6789;47.678;9.158;2022-08-19T15:34:27;96668.03;;;19.72;100.00
13434;BME280;6789;47.678;9.158;2022-08-19T15:40:22;96676.84;;;19.67;100.00
13434;BME280;6789;47.678;9.158;2022-08-19T15:45:47;96667.50;;;19.70;100.00
13434;BME280;6789;47.678;9.158;2022-08-19T15:51:05;96673.78;;;19.55;100.00
13434;BME280;6789;47.678;9.158;2022-08-19T15:56:12;96676.38;;;19.60;100.00
13434;BME280;6789;47.678;9.158;2022-08-19T16:01:32;96673.00;;;19.55;100.00
13434;BME280;6789;47.678;9.158;2022-08-19T16:07:08;96663.59;;;19.62;100.00
13434;BME280;6789;47.678;9.158;2022-08-19T16:12:53;96661.34;;;19.74;100.00
13434;BME280;6789;47.678;9.158;2022-08-19T16:18:42;96675.41;;;19.80;100.00
13434;BME280;6789;47.678;9.158;2022-08-19T16:24:06;96678.00;;;19.85;100.00
13434;BME280;6789;47.678;9.158;2022-08-19T16:30:03;96683.88;;;19.82;100.00
13434;BME280;6789;47.678;9.158;2022-08-19T16:35:15;96685.47;;;19.83;100.00
13434;BME280;6789;47.678;9.158;2022-08-19T16:40:34;96684.44;;;19.79;100.00
13434;BME280;6789;47.678;9.158;2022-08-19T16:46:35;96682.19;;;19.91;100.00
13434;BME280;6789;47.678;9.158;2022-08-19T16:57:49;96690.31;;;19.52;100.00
13434;BME280;6789;47.678;9.158;2022-08-19T17:03:32;96709.44;;;19.54;100.00
13434;BME280;6789;47.678;9.158;2022-08-19T17:09:18;96712.97;;;19.50;100.00
13434;BME280;6789;47.678;9.158;2022-08-19T17:14:56;96724.94;;;19.47;100.00
13434;BME280;6789;47.678;9.158;2022-08-19T17:31:32;96728.03;;;19.31;100.00
13434;BME280;6789;47.678;9.158;2022-08-19T17:42:44;96732.88;;;19.19;100.00
13434;BME280;6789;47.678;9.158;2022-08-19T17:48:08;96730.03;;;19.11;100.00
13434;BME280;6789;47.678;9.158;2022-08-19T17:53:33;96725.91;;;19.28;100.00
13434;BME280;6789;47.678;9.158;2022-08-19T18:04:37;96726.00;;;19.18;100.00
13434;BME280;6789;47.678;9.158;2022-08-19T18:10:46;96733.22;;;19.13;100.00
13434;BME280;6789;47.678;9.158;2022-08-19T18:21:29;96738.28;;;19.04;100.00
13434;BME280;6789;47.678;9.158;2022-08-19T18:33:16;96738.63;;;18.93;100.00
13434;BME280;6789;47.678;9.158;2022-08-19T18:38:23;96743.69;;;18.94;100.00
13434;BME280;6789;47.678;9.158;2022-08-19T18:56:27;96763.66;;;18.87;100.00
13434;BME280;6789;47.678;9.158;2022-08-19T19:13:04;96773.44;;;18.96;100.00
13434;BME280;6789;47.678;9.158;2022-08-19T19:18:10;96779.84;;;18.90;100.00
13434;BME280;6789;47.678;9.158;2022-08-19T19:29:04;96794.66;;;19.01;100.00
13434;BME280;6789;47.678;9.158;2022-08-19T19:34:23;96792.00;;;19.06;100.00
13434;BME280;6789;47.678;9.158;2022-08-19T19:40:02;96793.56;;;19.07;100.00
13434;BME280;6789;47.678;9.158;2022-08-19T19:45:49;96789.59;;;19.05;100.00
13434;BME280;6789;47.678;9.158;2022-08-19T19:51:53;96793.88;;;19.01;100.00
13434;BME280;6789;47.678;9.158;2022-08-19T19:57:23;96794.66;;;19.01;100.00
13434;BME280;6789;47.678;9.158;2022-08-19T20:02:40;96798.41;;;19.00;100.00
13434;BME280;6789;47.678;9.158;2022-08-19T20:07:50;96803.47;;;18.97;100.00
13434;BME280;6789;47.678;9.158;2022-08-19T20:13:17;96815.47;;;18.94;100.00
13434;BME280;6789;47.678;9.158;2022-08-19T20:18:27;96825.00;;;19.00;100.00
13434;BME280;6789;47.678;9.158;2022-08-19T20:23:39;96812.25;;;18.97;100.00
13434;BME280;6789;47.678;9.158;2022-08-19T20:28:56;96815.94;;;19.06;100.00
13434;BME280;6789;47.678;9.158;2022-08-19T20:51:28;96826.81;;;19.05;100.00
13434;BME280;6789;47.678;9.158;2022-08-19T21:20:45;96839.03;;;19.06;98.01
13434;BME280;6789;47.678;9.158;2022-08-19T21:49:44;96848.69;;;18.87;98.16
13434;BME280;6789;47.678;9.158;2022-08-19T22:17:23;96852.72;;;18.79;98.54
13434;BME280;6789;47.678;9.158;2022-08-19T22:23:21;96863.31;;;18.94;98.43
13434;BME280;6789;47.678;9.158;2022-08-19T22:35:36;96870.78;;;18.82;99.73
13434;BME280;6789;47.678;9.158;2022-08-19T22:46:23;96867.09;;;18.73;99.79
13434;BME280;6789;47.678;9.158;2022-08-19T22:51:56;96868.72;;;18.69;100.00
13434;BME280;6789;47.678;9.158;2022-08-19T23:03:24;96857.53;;;18.72;100.00
13434;BME280;6789;47.678;9.158;2022-08-19T23:24:04;96861.84;;;18.54;100.00
13434;BME280;6789;47.678;9.158;2022-08-19T23:29:16;96860.53;;;18.56;100.00
13434;BME280;6789;47.678;9.158;2022-08-19T23:40:39;96852.00;;;18.64;100.00
13434;BME280;6789;47.678;9.158;2022-08-19T23:51:46;96853.34;;;18.52;100.00
13434;BME280;6789;47.678;9.158;2022-08-19T23:56:55;96857.59;;;18.53;100.00
